sensor_id;sensor_type;location;lat;lon;timestamp;P1;durP1;ratioP1;P2;durP2;ratioP2
36211;SDS011;22247;48.586;13.492;2022-08-19T00:00:35;2.00;;;0.90;;
36211;SDS011;22247;48.586;13.492;2022-08-19T00:03:02;4.20;;;0.73;;
36211;SDS011;22247;48.586;13.492;2022-08-19T00:05:28;2.30;;;1.35;;
36211;SDS011;22247;48.586;13.492;2022-08-19T00:07:54;3.72;;;1.25;;
36211;SDS011;22247;48.586;13.492;2022-08-19T00:10:23;3.50;;;1.20;;
36211;SDS011;22247;48.586;13.492;2022-08-19T00:12:49;7.28;;;1.10;;
36211;SDS011;22247;48.586;13.492;2022-08-19T00:15:16;5.45;;;1.23;;
36211;SDS011;22247;48.586;13.492;2022-08-19T00:17:46;6.35;;;1.88;;
36211;SDS011;22247;48.586;13.492;2022-08-19T00:20:17;4.03;;;1.48;;
36211;SDS011;22247;48.586;13.492;2022-08-19T00:22:46;7.55;;;3.05;;
36211;SDS011;22247;48.586;13.492;2022-08-19T00:25:15;4.80;;;2.15;;
36211;SDS011;22247;48.586;13.492;2022-08-19T00:27:41;6.07;;;3.42;;
36211;SDS011;22247;48.586;13.492;2022-08-19T00:30:10;3.85;;;1.70;;
36211;SDS011;22247;48.586;13.492;2022-08-19T00:32:36;3.20;;;1.52;;
36211;SDS011;22247;48.586;13.492;2022-08-19T00:35:05;5.47;;;1.58;;
36211;SDS011;22247;48.586;13.492;2022-08-19T00:37:31;5.90;;;1.45;;
36211;SDS011;22247;48.586;13.492;2022-08-19T00:39:58;2.15;;;1.30;;
36211;SDS011;22247;48.586;13.492;2022-08-19T00:42:24;7.40;;;1.70;;
36211;SDS011;22247;48.586;13.492;2022-08-19T00:44:53;3.95;;;1.75;;
36211;SDS011;22247;48.586;13.492;2022-08-19T00:47:19;2.88;;;1.73;;
36211;SDS011;22247;48.586;13.492;2022-08-19T00:49:50;3.67;;;1.48;;
36211;SDS011;22247;48.586;13.492;2022-08-19T00:52:21;5.80;;;1.98;;
36211;SDS011;22247;48.586;13.492;2022-08-19T00:54:56;3.17;;;1.70;;
36211;SDS011;22247;48.586;13.492;2022-08-19T00:57:31;7.00;;;1.60;;
36211;SDS011;22247;48.586;13.492;2022-08-19T01:00:00;5.72;;;2.08;;
36211;SDS011;22247;48.586;13.492;2022-08-19T01:02:32;2.55;;;1.58;;
36211;SDS011;22247;48.586;13.492;2022-08-19T01:04:57;4.30;;;1.10;;
36211;SDS011;22247;48.586;13.492;2022-08-19T01:07:29;2.15;;;1.52;;
36211;SDS011;22247;48.586;13.492;2022-08-19T01:09:57;4.22;;;1.38;;
36211;SDS011;22247;48.586;13.492;2022-08-19T01:12:24;6.05;;;1.38;;
36211;SDS011;22247;48.586;13.492;2022-08-19T01:14:53;3.05;;;1.60;;
36211;SDS011;22247;48.586;13.492;2022-08-19T01:19:48;3.58;;;1.45;;
36211;SDS011;22247;48.586;13.492;2022-08-19T01:24:48;3.55;;;1.50;;
36211;SDS011;22247;48.586;13.492;2022-08-19T01:27:16;4.43;;;1.95;;
36211;SDS011;22247;48.586;13.492;2022-08-19T01:29:44;1.92;;;1.40;;
36211;SDS011;22247;48.586;13.492;2022-08-19T01:32:16;3.70;;;2.00;;
36211;SDS011;22247;48.586;13.492;2022-08-19T01:34:44;4.65;;;1.92;;
36211;SDS011;22247;48.586;13.492;2022-08-19T01:37:13;5.25;;;1.70;;
36211;SDS011;22247;48.586;13.492;2022-08-19T01:39:42;4.38;;;1.65;;
36211;SDS011;22247;48.586;13.492;2022-08-19T01:42:10;6.80;;;1.27;;
36211;SDS011;22247;48.586;13.492;2022-08-19T01:44:41;2.47;;;1.77;;
36211;SDS011;22247;48.586;13.492;2022-08-19T01:47:06;5.00;;;1.70;;
36211;SDS011;22247;48.586;13.492;2022-08-19T01:49:34;3.40;;;1.60;;
36211;SDS011;22247;48.586;13.492;2022-08-19T01:52:03;4.40;;;1.70;;
36211;SDS011;22247;48.586;13.492;2022-08-19T01:54:31;4.13;;;1.10;;
36211;SDS011;22247;48.586;13.492;2022-08-19T01:57:03;2.90;;;1.33;;
36211;SDS011;22247;48.586;13.492;2022-08-19T01:59:32;4.80;;;1.92;;
36211;SDS011;22247;48.586;13.492;2022-08-19T02:02:01;2.60;;;1.52;;
36211;SDS011;22247;48.586;13.492;2022-08-19T02:04:29;3.78;;;2.08;;
36211;SDS011;22247;48.586;13.492;2022-08-19T02:06:54;4.13;;;1.98;;
36211;SDS011;22247;48.586;13.492;2022-08-19T02:09:22;4.97;;;2.42;;
36211;SDS011;22247;48.586;13.492;2022-08-19T02:11:50;3.88;;;1.95;;
36211;SDS011;22247;48.586;13.492;2022-08-19T02:14:18;6.80;;;2.53;;
36211;SDS011;22247;48.586;13.492;2022-08-19T02:16:44;3.22;;;2.05;;
36211;SDS011;22247;48.586;13.492;2022-08-19T02:19:17;3.50;;;2.17;;
36211;SDS011;22247;48.586;13.492;2022-08-19T02:21:45;4.20;;;2.40;;
36211;SDS011;22247;48.586;13.492;2022-08-19T02:24:11;2.28;;;1.95;;
36211;SDS011;22247;48.586;13.492;2022-08-19T02:26:37;4.25;;;2.33;;
36211;SDS011;22247;48.586;13.492;2022-08-19T02:29:05;5.95;;;2.03;;
36211;SDS011;22247;48.586;13.492;2022-08-19T02:31:32;5.30;;;2.50;;
36211;SDS011;22247;48.586;13.492;2022-08-19T02:33:59;4.43;;;2.45;;
36211;SDS011;22247;48.586;13.492;2022-08-19T02:36:25;4.15;;;2.05;;
36211;SDS011;22247;48.586;13.492;2022-08-19T02:38:55;5.43;;;2.45;;
36211;SDS011;22247;48.586;13.492;2022-08-19T02:41:28;2.75;;;2.13;;
36211;SDS011;22247;48.586;13.492;2022-08-19T02:43:56;6.40;;;2.70;;
36211;SDS011;22247;48.586;13.492;2022-08-19T02:46:27;3.63;;;2.40;;
36211;SDS011;22247;48.586;13.492;2022-08-19T02:48:59;3.80;;;2.17;;
36211;SDS011;22247;48.586;13.492;2022-08-19T02:51:29;6.10;;;2.97;;
36211;SDS011;22247;48.586;13.492;2022-08-19T02:54:02;2.83;;;2.53;;
36211;SDS011;22247;48.586;13.492;2022-08-19T02:56:33;13.38;;;8.95;;
36211;SDS011;22247;48.586;13.492;2022-08-19T02:59:00;15.13;;;9.20;;
36211;SDS011;22247;48.586;13.492;2022-08-19T03:01:36;11.88;;;9.63;;
36211;SDS011;22247;48.586;13.492;2022-08-19T03:04:05;10.75;;;9.07;;
36211;SDS011;22247;48.586;13.492;2022-08-19T03:06:32;10.05;;;8.90;;
36211;SDS011;22247;48.586;13.492;2022-08-19T03:09:03;11.68;;;9.40;;
36211;SDS011;22247;48.586;13.492;2022-08-19T03:11:32;11.05;;;9.65;;
36211;SDS011;22247;48.586;13.492;2022-08-19T03:13:58;12.88;;;10.07;;
36211;SDS011;22247;48.586;13.492;2022-08-19T03:16:26;11.90;;;10.63;;
36211;SDS011;22247;48.586;13.492;2022-08-19T03:18:59;11.25;;;9.98;;
36211;SDS011;22247;48.586;13.492;2022-08-19T03:21:26;10.27;;;9.15;;
36211;SDS011;22247;48.586;13.492;2022-08-19T03:23:56;14.02;;;11.07;;
36211;SDS011;22247;48.586;13.492;2022-08-19T03:26:29;12.50;;;10.65;;
36211;SDS011;22247;48.586;13.492;2022-08-19T03:28:57;18.02;;;11.55;;
36211;SDS011;22247;48.586;13.492;2022-08-19T03:31:26;12.20;;;10.32;;
36211;SDS011;22247;48.586;13.492;2022-08-19T03:33:52;15.25;;;11.80;;
36211;SDS011;22247;48.586;13.492;2022-08-19T03:36:19;12.85;;;11.30;;
36211;SDS011;22247;48.586;13.492;2022-08-19T03:38:54;14.00;;;10.82;;
36211;SDS011;22247;48.586;13.492;2022-08-19T03:41:32;14.18;;;11.32;;
36211;SDS011;22247;48.586;13.492;2022-08-19T03:44:01;15.60;;;11.35;;
36211;SDS011;22247;48.586;13.492;2022-08-19T03:46:29;12.70;;;11.40;;
36211;SDS011;22247;48.586;13.492;2022-08-19T03:48:57;11.90;;;10.68;;
36211;SDS011;22247;48.586;13.492;2022-08-19T03:51:35;15.77;;;10.57;;
36211;SDS011;22247;48.586;13.492;2022-08-19T03:54:08;11.82;;;10.40;;
36211;SDS011;22247;48.586;13.492;2022-08-19T03:56:41;13.40;;;9.65;;
36211;SDS011;22247;48.586;13.492;2022-08-19T03:59:12;7.63;;;6.15;;
36211;SDS011;22247;48.586;13.492;2022-08-19T04:01:40;7.68;;;5.70;;
36211;SDS011;22247;48.586;13.492;2022-08-19T04:04:06;6.15;;;5.57;;
36211;SDS011;22247;48.586;13.492;2022-08-19T04:06:35;5.03;;;3.50;;
36211;SDS011;22247;48.586;13.492;2022-08-19T04:09:05;3.90;;;3.50;;
36211;SDS011;22247;48.586;13.492;2022-08-19T04:11:44;8.53;;;5.20;;
36211;SDS011;22247;48.586;13.492;2022-08-19T04:14:19;7.88;;;5.05;;
36211;SDS011;22247;48.586;13.492;2022-08-19T04:16:47;11.88;;;8.38;;
36211;SDS011;22247;48.586;13.492;2022-08-19T04:19:19;15.35;;;12.68;;
36211;SDS011;22247;48.586;13.492;2022-08-19T04:21:48;17.58;;;13.90;;
36211;SDS011;22247;48.586;13.492;2022-08-19T04:24:15;20.13;;;15.05;;
36211;SDS011;22247;48.586;13.492;2022-08-19T04:26:41;15.75;;;13.00;;
36211;SDS011;22247;48.586;13.492;2022-08-19T04:29:14;17.52;;;13.20;;
36211;SDS011;22247;48.586;13.492;2022-08-19T04:34:17;17.02;;;12.70;;
36211;SDS011;22247;48.586;13.492;2022-08-19T04:36:47;24.08;;;15.50;;
36211;SDS011;22247;48.586;13.492;2022-08-19T04:39:16;17.55;;;12.93;;
36211;SDS011;22247;48.586;13.492;2022-08-19T04:41:47;15.38;;;13.18;;
36211;SDS011;22247;48.586;13.492;2022-08-19T04:44:34;15.80;;;13.95;;
36211;SDS011;22247;48.586;13.492;2022-08-19T04:47:03;16.92;;;14.25;;
36211;SDS011;22247;48.586;13.492;2022-08-19T04:49:30;19.40;;;14.20;;
36211;SDS011;22247;48.586;13.492;2022-08-19T04:51:59;17.20;;;14.43;;
36211;SDS011;22247;48.586;13.492;2022-08-19T04:54:25;16.90;;;13.73;;
36211;SDS011;22247;48.586;13.492;2022-08-19T04:56:51;18.90;;;13.70;;
36211;SDS011;22247;48.586;13.492;2022-08-19T04:59:18;17.90;;;14.20;;
36211;SDS011;22247;48.586;13.492;2022-08-19T05:01:45;18.42;;;14.55;;
36211;SDS011;22247;48.586;13.492;2022-08-19T05:04:15;20.35;;;14.95;;
36211;SDS011;22247;48.586;13.492;2022-08-19T05:06:45;18.75;;;14.15;;
36211;SDS011;22247;48.586;13.492;2022-08-19T05:09:13;17.80;;;13.25;;
36211;SDS011;22247;48.586;13.492;2022-08-19T05:11:39;19.77;;;13.82;;
36211;SDS011;22247;48.586;13.492;2022-08-19T05:14:06;20.33;;;13.85;;
36211;SDS011;22247;48.586;13.492;2022-08-19T05:16:33;15.13;;;11.80;;
36211;SDS011;22247;48.586;13.492;2022-08-19T05:19:01;15.85;;;11.05;;
36211;SDS011;22247;48.586;13.492;2022-08-19T05:21:46;17.30;;;12.65;;
36211;SDS011;22247;48.586;13.492;2022-08-19T05:24:30;12.75;;;10.52;;
36211;SDS011;22247;48.586;13.492;2022-08-19T05:26:59;15.43;;;11.18;;
36211;SDS011;22247;48.586;13.492;2022-08-19T05:29:28;14.18;;;11.02;;
36211;SDS011;22247;48.586;13.492;2022-08-19T05:31:56;14.43;;;11.52;;
36211;SDS011;22247;48.586;13.492;2022-08-19T05:34:23;12.57;;;10.95;;
36211;SDS011;22247;48.586;13.492;2022-08-19T05:36:53;12.60;;;11.20;;
36211;SDS011;22247;48.586;13.492;2022-08-19T05:39:23;14.63;;;10.18;;
36211;SDS011;22247;48.586;13.492;2022-08-19T05:41:54;11.15;;;9.45;;
36211;SDS011;22247;48.586;13.492;2022-08-19T05:44:23;10.70;;;7.55;;
36211;SDS011;22247;48.586;13.492;2022-08-19T05:46:52;9.23;;;7.63;;
36211;SDS011;22247;48.586;13.492;2022-08-19T05:49:20;12.38;;;8.48;;
36211;SDS011;22247;48.586;13.492;2022-08-19T05:54:17;11.07;;;8.07;;
36211;SDS011;22247;48.586;13.492;2022-08-19T05:56:46;10.00;;;7.85;;
36211;SDS011;22247;48.586;13.492;2022-08-19T05:59:16;11.07;;;8.02;;
36211;SDS011;22247;48.586;13.492;2022-08-19T06:01:43;7.47;;;6.32;;
36211;SDS011;22247;48.586;13.492;2022-08-19T06:04:11;9.27;;;7.78;;
36211;SDS011;22247;48.586;13.492;2022-08-19T06:06:39;9.57;;;6.60;;
36211;SDS011;22247;48.586;13.492;2022-08-19T06:09:06;8.65;;;7.75;;
36211;SDS011;22247;48.586;13.492;2022-08-19T06:14:19;7.68;;;6.72;;
36211;SDS011;22247;48.586;13.492;2022-08-19T06:16:50;9.43;;;7.63;;
36211;SDS011;22247;48.586;13.492;2022-08-19T06:19:20;8.40;;;7.57;;
36211;SDS011;22247;48.586;13.492;2022-08-19T06:21:50;9.63;;;7.25;;
36211;SDS011;22247;48.586;13.492;2022-08-19T06:24:21;8.95;;;8.02;;
36211;SDS011;22247;48.586;13.492;2022-08-19T06:26:51;10.02;;;7.45;;
36211;SDS011;22247;48.586;13.492;2022-08-19T06:29:25;9.77;;;8.70;;
36211;SDS011;22247;48.586;13.492;2022-08-19T06:31:56;13.20;;;10.30;;
36211;SDS011;22247;48.586;13.492;2022-08-19T06:34:32;13.65;;;10.77;;
36211;SDS011;22247;48.586;13.492;2022-08-19T06:37:02;12.35;;;11.15;;
36211;SDS011;22247;48.586;13.492;2022-08-19T06:39:32;15.02;;;11.30;;
36211;SDS011;22247;48.586;13.492;2022-08-19T06:42:03;14.20;;;10.73;;
36211;SDS011;22247;48.586;13.492;2022-08-19T06:44:37;17.13;;;10.90;;
36211;SDS011;22247;48.586;13.492;2022-08-19T06:47:08;14.57;;;11.75;;
36211;SDS011;22247;48.586;13.492;2022-08-19T06:49:36;18.95;;;11.55;;
36211;SDS011;22247;48.586;13.492;2022-08-19T06:52:02;14.95;;;11.52;;
36211;SDS011;22247;48.586;13.492;2022-08-19T06:54:31;13.38;;;10.75;;
36211;SDS011;22247;48.586;13.492;2022-08-19T06:56:58;13.80;;;11.35;;
36211;SDS011;22247;48.586;13.492;2022-08-19T06:59:27;13.25;;;11.00;;
36211;SDS011;22247;48.586;13.492;2022-08-19T07:01:53;18.15;;;11.82;;
36211;SDS011;22247;48.586;13.492;2022-08-19T07:04:22;13.07;;;10.88;;
36211;SDS011;22247;48.586;13.492;2022-08-19T07:06:55;14.05;;;11.07;;
36211;SDS011;22247;48.586;13.492;2022-08-19T07:09:25;14.55;;;11.43;;
36211;SDS011;22247;48.586;13.492;2022-08-19T07:11:52;13.95;;;9.40;;
36211;SDS011;22247;48.586;13.492;2022-08-19T07:14:20;12.05;;;9.77;;
36211;SDS011;22247;48.586;13.492;2022-08-19T07:17:08;14.38;;;10.23;;
36211;SDS011;22247;48.586;13.492;2022-08-19T07:19:35;11.70;;;9.55;;
36211;SDS011;22247;48.586;13.492;2022-08-19T07:22:03;11.50;;;9.25;;
36211;SDS011;22247;48.586;13.492;2022-08-19T07:24:50;11.02;;;9.23;;
36211;SDS011;22247;48.586;13.492;2022-08-19T07:27:31;13.38;;;11.30;;
36211;SDS011;22247;48.586;13.492;2022-08-19T07:29:58;11.35;;;9.65;;
36211;SDS011;22247;48.586;13.492;2022-08-19T07:32:25;13.95;;;10.57;;
36211;SDS011;22247;48.586;13.492;2022-08-19T07:34:55;14.50;;;10.32;;
36211;SDS011;22247;48.586;13.492;2022-08-19T07:37:21;11.02;;;9.10;;
36211;SDS011;22247;48.586;13.492;2022-08-19T07:39:48;10.68;;;8.60;;
36211;SDS011;22247;48.586;13.492;2022-08-19T07:42:14;11.18;;;9.65;;
36211;SDS011;22247;48.586;13.492;2022-08-19T07:44:40;11.40;;;8.63;;
36211;SDS011;22247;48.586;13.492;2022-08-19T07:47:08;10.35;;;9.07;;
36211;SDS011;22247;48.586;13.492;2022-08-19T07:49:35;11.95;;;10.52;;
36211;SDS011;22247;48.586;13.492;2022-08-19T07:52:03;9.35;;;8.40;;
36211;SDS011;22247;48.586;13.492;2022-08-19T07:54:32;15.07;;;11.07;;
36211;SDS011;22247;48.586;13.492;2022-08-19T07:57:03;14.02;;;9.25;;
36211;SDS011;22247;48.586;13.492;2022-08-19T08:36:15;10.80;;;9.23;;
36211;SDS011;22247;48.586;13.492;2022-08-19T09:29:29;14.30;;;12.80;;
36211;SDS011;22247;48.586;13.492;2022-08-19T09:42:32;14.07;;;11.15;;
36211;SDS011;22247;48.586;13.492;2022-08-19T09:45:31;15.48;;;12.52;;
36211;SDS011;22247;48.586;13.492;2022-08-19T09:55:10;12.45;;;9.95;;
36211;SDS011;22247;48.586;13.492;2022-08-19T09:57:38;12.05;;;10.73;;
36211;SDS011;22247;48.586;13.492;2022-08-19T10:00:07;13.07;;;10.98;;
36211;SDS011;22247;48.586;13.492;2022-08-19T10:02:36;12.38;;;10.07;;
36211;SDS011;22247;48.586;13.492;2022-08-19T10:05:02;12.10;;;9.48;;
36211;SDS011;22247;48.586;13.492;2022-08-19T10:07:46;13.45;;;10.77;;
36211;SDS011;22247;48.586;13.492;2022-08-19T10:10:15;12.55;;;11.25;;
36211;SDS011;22247;48.586;13.492;2022-08-19T10:12:41;10.75;;;9.60;;
36211;SDS011;22247;48.586;13.492;2022-08-19T10:15:14;12.43;;;10.10;;
36211;SDS011;22247;48.586;13.492;2022-08-19T10:17:46;12.63;;;11.32;;
36211;SDS011;22247;48.586;13.492;2022-08-19T10:20:15;10.27;;;9.23;;
36211;SDS011;22247;48.586;13.492;2022-08-19T10:22:44;11.15;;;9.82;;
36211;SDS011;22247;48.586;13.492;2022-08-19T10:25:14;12.55;;;8.98;;
36211;SDS011;22247;48.586;13.492;2022-08-19T10:27:42;10.23;;;7.25;;
36211;SDS011;22247;48.586;13.492;2022-08-19T10:30:08;9.57;;;8.57;;
36211;SDS011;22247;48.586;13.492;2022-08-19T10:32:34;10.40;;;6.53;;
36211;SDS011;22247;48.586;13.492;2022-08-19T10:35:04;8.48;;;7.45;;
36211;SDS011;22247;48.586;13.492;2022-08-19T10:37:33;10.18;;;7.38;;
36211;SDS011;22247;48.586;13.492;2022-08-19T10:39:59;7.55;;;6.68;;
36211;SDS011;22247;48.586;13.492;2022-08-19T10:42:26;6.57;;;5.97;;
36211;SDS011;22247;48.586;13.492;2022-08-19T10:44:52;6.65;;;5.70;;
36211;SDS011;22247;48.586;13.492;2022-08-19T10:47:18;6.18;;;5.57;;
36211;SDS011;22247;48.586;13.492;2022-08-19T10:49:47;4.82;;;4.40;;
36211;SDS011;22247;48.586;13.492;2022-08-19T10:52:32;8.25;;;6.00;;
36211;SDS011;22247;48.586;13.492;2022-08-19T10:54:59;22.42;;;15.57;;
36211;SDS011;22247;48.586;13.492;2022-08-19T10:57:47;4.68;;;3.92;;
36211;SDS011;22247;48.586;13.492;2022-08-19T11:00:13;7.82;;;6.38;;
36211;SDS011;22247;48.586;13.492;2022-08-19T11:02:39;10.55;;;6.63;;
36211;SDS011;22247;48.586;13.492;2022-08-19T11:05:06;6.70;;;5.05;;
36211;SDS011;22247;48.586;13.492;2022-08-19T11:07:35;8.07;;;7.38;;
36211;SDS011;22247;48.586;13.492;2022-08-19T11:10:02;5.65;;;5.07;;
36211;SDS011;22247;48.586;13.492;2022-08-19T11:12:34;12.00;;;7.28;;
36211;SDS011;22247;48.586;13.492;2022-08-19T11:15:04;10.63;;;7.20;;
36211;SDS011;22247;48.586;13.492;2022-08-19T11:17:38;8.70;;;6.57;;
36211;SDS011;22247;48.586;13.492;2022-08-19T11:20:08;8.15;;;6.18;;
36211;SDS011;22247;48.586;13.492;2022-08-19T11:22:35;6.32;;;5.55;;
36211;SDS011;22247;48.586;13.492;2022-08-19T11:25:01;13.77;;;6.38;;
36211;SDS011;22247;48.586;13.492;2022-08-19T11:27:27;5.32;;;4.82;;
36211;SDS011;22247;48.586;13.492;2022-08-19T11:29:53;8.80;;;4.45;;
36211;SDS011;22247;48.586;13.492;2022-08-19T11:32:22;5.15;;;4.00;;
36211;SDS011;22247;48.586;13.492;2022-08-19T11:34:51;11.90;;;5.22;;
36211;SDS011;22247;48.586;13.492;2022-08-19T11:37:17;6.50;;;3.50;;
36211;SDS011;22247;48.586;13.492;2022-08-19T11:39:43;6.53;;;3.70;;
36211;SDS011;22247;48.586;13.492;2022-08-19T11:42:09;7.55;;;4.88;;
36211;SDS011;22247;48.586;13.492;2022-08-19T11:44:54;7.15;;;4.53;;
36211;SDS011;22247;48.586;13.492;2022-08-19T11:47:20;4.82;;;4.32;;
36211;SDS011;22247;48.586;13.492;2022-08-19T11:49:46;6.78;;;3.92;;
36211;SDS011;22247;48.586;13.492;2022-08-19T11:52:14;3.53;;;3.22;;
36211;SDS011;22247;48.586;13.492;2022-08-19T11:54:40;4.30;;;3.72;;
36211;SDS011;22247;48.586;13.492;2022-08-19T11:57:06;6.00;;;4.25;;
36211;SDS011;22247;48.586;13.492;2022-08-19T11:59:32;5.22;;;2.97;;
36211;SDS011;22247;48.586;13.492;2022-08-19T12:01:58;4.20;;;3.83;;
36211;SDS011;22247;48.586;13.492;2022-08-19T12:04:24;4.05;;;3.38;;
36211;SDS011;22247;48.586;13.492;2022-08-19T12:06:50;4.03;;;3.63;;
36211;SDS011;22247;48.586;13.492;2022-08-19T12:09:16;5.70;;;4.03;;
36211;SDS011;22247;48.586;13.492;2022-08-19T12:11:43;7.30;;;5.00;;
36211;SDS011;22247;48.586;13.492;2022-08-19T12:14:09;3.67;;;3.33;;
36211;SDS011;22247;48.586;13.492;2022-08-19T12:16:37;9.30;;;2.63;;
36211;SDS011;22247;48.586;13.492;2022-08-19T12:19:06;3.58;;;2.85;;
36211;SDS011;22247;48.586;13.492;2022-08-19T12:21:35;3.97;;;3.33;;
36211;SDS011;22247;48.586;13.492;2022-08-19T12:24:01;3.60;;;2.95;;
36211;SDS011;22247;48.586;13.492;2022-08-19T12:26:29;3.40;;;2.67;;
36211;SDS011;22247;48.586;13.492;2022-08-19T12:28:58;4.70;;;2.83;;
36211;SDS011;22247;48.586;13.492;2022-08-19T12:31:27;3.50;;;3.20;;
36211;SDS011;22247;48.586;13.492;2022-08-19T12:33:54;3.58;;;2.40;;
36211;SDS011;22247;48.586;13.492;2022-08-19T12:36:22;4.15;;;2.50;;
36211;SDS011;22247;48.586;13.492;2022-08-19T12:38:48;4.15;;;3.20;;
36211;SDS011;22247;48.586;13.492;2022-08-19T12:41:16;4.25;;;2.50;;
36211;SDS011;22247;48.586;13.492;2022-08-19T12:43:47;4.03;;;3.33;;
36211;SDS011;22247;48.586;13.492;2022-08-19T12:46:14;5.28;;;2.60;;
36211;SDS011;22247;48.586;13.492;2022-08-19T12:48:40;5.00;;;2.90;;
36211;SDS011;22247;48.586;13.492;2022-08-19T12:51:11;5.18;;;2.38;;
36211;SDS011;22247;48.586;13.492;2022-08-19T12:53:43;4.22;;;2.40;;
36211;SDS011;22247;48.586;13.492;2022-08-19T12:56:09;2.70;;;1.90;;
36211;SDS011;22247;48.586;13.492;2022-08-19T12:58:36;5.68;;;2.80;;
36211;SDS011;22247;48.586;13.492;2022-08-19T13:01:16;5.88;;;2.97;;
36211;SDS011;22247;48.586;13.492;2022-08-19T13:03:42;3.15;;;2.85;;
36211;SDS011;22247;48.586;13.492;2022-08-19T13:06:11;5.15;;;2.58;;
36211;SDS011;22247;48.586;13.492;2022-08-19T13:08:37;4.18;;;2.20;;
36211;SDS011;22247;48.586;13.492;2022-08-19T13:11:16;2.55;;;2.35;;
36211;SDS011;22247;48.586;13.492;2022-08-19T13:13:50;2.45;;;2.25;;
36211;SDS011;22247;48.586;13.492;2022-08-19T13:16:20;5.22;;;2.35;;
36211;SDS011;22247;48.586;13.492;2022-08-19T13:18:47;2.35;;;1.80;;
36211;SDS011;22247;48.586;13.492;2022-08-19T13:21:13;3.55;;;2.92;;
36211;SDS011;22247;48.586;13.492;2022-08-19T13:23:41;2.58;;;2.15;;
36211;SDS011;22247;48.586;13.492;2022-08-19T13:26:10;4.97;;;2.72;;
36211;SDS011;22247;48.586;13.492;2022-08-19T13:28:37;3.97;;;2.33;;
36211;SDS011;22247;48.586;13.492;2022-08-19T13:31:23;5.70;;;2.60;;
36211;SDS011;22247;48.586;13.492;2022-08-19T13:34:08;3.50;;;3.08;;
36211;SDS011;22247;48.586;13.492;2022-08-19T13:36:37;3.55;;;3.08;;
36211;SDS011;22247;48.586;13.492;2022-08-19T13:39:06;2.97;;;2.75;;
36211;SDS011;22247;48.586;13.492;2022-08-19T13:41:36;3.63;;;2.63;;
36211;SDS011;22247;48.586;13.492;2022-08-19T13:44:02;2.40;;;2.20;;
36211;SDS011;22247;48.586;13.492;2022-08-19T13:46:31;3.08;;;1.90;;
36211;SDS011;22247;48.586;13.492;2022-08-19T13:49:00;6.15;;;2.92;;
36211;SDS011;22247;48.586;13.492;2022-08-19T13:51:26;6.05;;;2.75;;
36211;SDS011;22247;48.586;13.492;2022-08-19T13:53:52;3.50;;;1.90;;
36211;SDS011;22247;48.586;13.492;2022-08-19T13:56:20;3.00;;;2.38;;
36211;SDS011;22247;48.586;13.492;2022-08-19T13:58:46;3.28;;;1.98;;
36211;SDS011;22247;48.586;13.492;2022-08-19T14:01:12;3.03;;;1.80;;
36211;SDS011;22247;48.586;13.492;2022-08-19T14:03:47;3.75;;;1.50;;
36211;SDS011;22247;48.586;13.492;2022-08-19T14:06:13;2.63;;;1.35;;
36211;SDS011;22247;48.586;13.492;2022-08-19T14:08:43;2.88;;;2.30;;
36211;SDS011;22247;48.586;13.492;2022-08-19T14:11:09;2.03;;;1.58;;
36211;SDS011;22247;48.586;13.492;2022-08-19T14:13:35;2.28;;;1.77;;
36211;SDS011;22247;48.586;13.492;2022-08-19T14:16:06;3.83;;;1.60;;
36211;SDS011;22247;48.586;13.492;2022-08-19T14:20:59;1.25;;;1.00;;
36211;SDS011;22247;48.586;13.492;2022-08-19T14:23:25;3.40;;;1.25;;
36211;SDS011;22247;48.586;13.492;2022-08-19T14:25:51;3.55;;;1.00;;
36211;SDS011;22247;48.586;13.492;2022-08-19T14:28:17;2.85;;;0.90;;
36211;SDS011;22247;48.586;13.492;2022-08-19T14:30:43;3.45;;;1.08;;
36211;SDS011;22247;48.586;13.492;2022-08-19T14:33:11;1.92;;;0.82;;
36211;SDS011;22247;48.586;13.492;2022-08-19T14:35:38;4.85;;;0.95;;
36211;SDS011;22247;48.586;13.492;2022-08-19T14:38:06;4.43;;;1.00;;
36211;SDS011;22247;48.586;13.492;2022-08-19T14:40:41;1.80;;;0.82;;
36211;SDS011;22247;48.586;13.492;2022-08-19T14:43:07;1.77;;;1.08;;
36211;SDS011;22247;48.586;13.492;2022-08-19T14:45:36;1.88;;;0.90;;
36211;SDS011;22247;48.586;13.492;2022-08-19T14:48:06;2.10;;;0.98;;
36211;SDS011;22247;48.586;13.492;2022-08-19T14:50:33;2.95;;;0.65;;
36211;SDS011;22247;48.586;13.492;2022-08-19T14:53:03;2.65;;;0.60;;
36211;SDS011;22247;48.586;13.492;2022-08-19T14:55:33;2.83;;;0.80;;
36211;SDS011;22247;48.586;13.492;2022-08-19T14:58:01;3.75;;;0.90;;
36211;SDS011;22247;48.586;13.492;2022-08-19T15:00:27;1.92;;;0.70;;
36211;SDS011;22247;48.586;13.492;2022-08-19T15:02:53;3.35;;;0.82;;
36211;SDS011;22247;48.586;13.492;2022-08-19T15:05:22;1.45;;;0.82;;
36211;SDS011;22247;48.586;13.492;2022-08-19T15:07:49;1.77;;;0.70;;
36211;SDS011;22247;48.586;13.492;2022-08-19T15:10:16;1.98;;;1.05;;
36211;SDS011;22247;48.586;13.492;2022-08-19T15:12:46;3.53;;;1.40;;
36211;SDS011;22247;48.586;13.492;2022-08-19T15:15:13;3.20;;;0.80;;
36211;SDS011;22247;48.586;13.492;2022-08-19T15:17:43;3.40;;;0.80;;
36211;SDS011;22247;48.586;13.492;2022-08-19T15:20:15;2.00;;;0.80;;
36211;SDS011;22247;48.586;13.492;2022-08-19T15:22:43;2.42;;;0.60;;
36211;SDS011;22247;48.586;13.492;2022-08-19T15:25:12;1.45;;;0.50;;
36211;SDS011;22247;48.586;13.492;2022-08-19T15:27:40;1.20;;;0.60;;
36211;SDS011;22247;48.586;13.492;2022-08-19T15:30:07;1.75;;;0.50;;
36211;SDS011;22247;48.586;13.492;2022-08-19T15:32:34;2.45;;;0.50;;
36211;SDS011;22247;48.586;13.492;2022-08-19T15:35:00;1.10;;;0.85;;
36211;SDS011;22247;48.586;13.492;2022-08-19T15:37:28;0.82;;;0.60;;
36211;SDS011;22247;48.586;13.492;2022-08-19T15:39:54;1.67;;;0.40;;
36211;SDS011;22247;48.586;13.492;2022-08-19T15:42:19;4.47;;;1.30;;
36211;SDS011;22247;48.586;13.492;2022-08-19T15:44:46;4.13;;;1.75;;
36211;SDS011;22247;48.586;13.492;2022-08-19T15:47:16;3.45;;;1.63;;
36211;SDS011;22247;48.586;13.492;2022-08-19T15:49:44;3.55;;;1.50;;
36211;SDS011;22247;48.586;13.492;2022-08-19T15:52:10;2.22;;;1.50;;
36211;SDS011;22247;48.586;13.492;2022-08-19T15:54:39;4.28;;;1.88;;
36211;SDS011;22247;48.586;13.492;2022-08-19T15:57:05;3.20;;;2.10;;
36211;SDS011;22247;48.586;13.492;2022-08-19T15:59:46;1.83;;;1.65;;
36211;SDS011;22247;48.586;13.492;2022-08-19T16:02:31;2.88;;;1.63;;
36211;SDS011;22247;48.586;13.492;2022-08-19T16:05:20;3.58;;;1.42;;
36211;SDS011;22247;48.586;13.492;2022-08-19T16:08:08;3.47;;;1.90;;
36211;SDS011;22247;48.586;13.492;2022-08-19T16:10:35;2.53;;;2.28;;
36211;SDS011;22247;48.586;13.492;2022-08-19T16:13:02;2.42;;;2.00;;
36211;SDS011;22247;48.586;13.492;2022-08-19T16:15:30;2.28;;;2.05;;
36211;SDS011;22247;48.586;13.492;2022-08-19T16:17:58;3.45;;;2.83;;
36211;SDS011;22247;48.586;13.492;2022-08-19T16:20:26;3.17;;;2.30;;
36211;SDS011;22247;48.586;13.492;2022-08-19T16:22:52;5.50;;;2.03;;
36211;SDS011;22247;48.586;13.492;2022-08-19T16:25:18;2.20;;;1.67;;
36211;SDS011;22247;48.586;13.492;2022-08-19T16:27:50;6.57;;;2.45;;
36211;SDS011;22247;48.586;13.492;2022-08-19T16:30:18;2.83;;;2.63;;
36211;SDS011;22247;48.586;13.492;2022-08-19T16:32:44;4.22;;;3.20;;
36211;SDS011;22247;48.586;13.492;2022-08-19T16:35:14;2.85;;;2.65;;
36211;SDS011;22247;48.586;13.492;2022-08-19T16:37:42;4.25;;;3.20;;